sensor_id;sensor_type;location;lat;lon;timestamp;P1;durP1;ratioP1;P2;durP2;ratioP2
16862;SDS011;52193;48.216;-1.698;2022-12-31T00:00:58;26.23;;;16.10;;
16862;SDS011;52193;48.216;-1.698;2022-12-31T00:03:25;25.48;;;16.15;;
16862;SDS011;52193;48.216;-1.698;2022-12-31T00:05:54;22.65;;;16.45;;
16862;SDS011;52193;48.216;-1.698;2022-12-31T00:08:21;21.58;;;15.68;;
16862;SDS011;52193;48.216;-1.698;2022-12-31T00:10:48;19.42;;;15.15;;
16862;SDS011;52193;48.216;-1.698;2022-12-31T00:13:15;22.23;;;16.15;;
16862;SDS011;52193;48.216;-1.698;2022-12-31T00:15:42;20.17;;;15.75;;
16862;SDS011;52193;48.216;-1.698;2022-12-31T00:18:09;19.90;;;15.63;;
16862;SDS011;52193;48.216;-1.698;2022-12-31T00:20:37;18.00;;;16.27;;
16862;SDS011;52193;48.216;-1.698;2022-12-31T00:23:07;18.08;;;16.15;;
16862;SDS011;52193;48.216;-1.698;2022-12-31T00:25:34;17.08;;;15.48;;
16862;SDS011;52193;48.216;-1.698;2022-12-31T00:28:01;17.27;;;15.68;;
16862;SDS011;52193;48.216;-1.698;2022-12-31T00:30:28;16.95;;;15.20;;
16862;SDS011;52193;48.216;-1.698;2022-12-31T00:32:56;16.65;;;15.15;;
16862;SDS011;52193;48.216;-1.698;2022-12-31T00:35:23;17.80;;;16.00;;
16862;SDS011;52193;48.216;-1.698;2022-12-31T00:37:51;18.75;;;16.75;;
16862;SDS011;52193;48.216;-1.698;2022-12-31T00:40:19;18.48;;;16.52;;
16862;SDS011;52193;48.216;-1.698;2022-12-31T00:42:46;19.02;;;15.98;;
16862;SDS011;52193;48.216;-1.698;2022-12-31T00:45:13;24.98;;;17.92;;
16862;SDS011;52193;48.216;-1.698;2022-12-31T00:47:40;26.95;;;18.20;;
16862;SDS011;52193;48.216;-1.698;2022-12-31T00:50:07;25.83;;;17.33;;
16862;SDS011;52193;48.216;-1.698;2022-12-31T00:52:35;25.85;;;17.40;;
16862;SDS011;52193;48.216;-1.698;2022-12-31T00:55:02;27.15;;;17.48;;
16862;SDS011;52193;48.216;-1.698;2022-12-31T00:57:30;27.00;;;17.83;;
16862;SDS011;52193;48.216;-1.698;2022-12-31T00:59:57;28.25;;;17.70;;
16862;SDS011;52193;48.216;-1.698;2022-12-31T01:02:24;26.27;;;17.40;;
16862;SDS011;52193;48.216;-1.698;2022-12-31T01:04:51;28.60;;;17.10;;
16862;SDS011;52193;48.216;-1.698;2022-12-31T01:07:18;25.95;;;16.85;;
16862;SDS011;52193;48.216;-1.698;2022-12-31T01:09:45;27.48;;;17.85;;
16862;SDS011;52193;48.216;-1.698;2022-12-31T01:12:12;31.05;;;17.70;;
16862;SDS011;52193;48.216;-1.698;2022-12-31T01:14:41;24.60;;;18.35;;
16862;SDS011;52193;48.216;-1.698;2022-12-31T01:17:08;24.52;;;18.13;;
16862;SDS011;52193;48.216;-1.698;2022-12-31T01:19:35;25.73;;;16.92;;
16862;SDS011;52193;48.216;-1.698;2022-12-31T01:22:01;22.00;;;17.52;;
16862;SDS011;52193;48.216;-1.698;2022-12-31T01:24:29;25.85;;;17.80;;
16862;SDS011;52193;48.216;-1.698;2022-12-31T01:26:56;23.40;;;16.75;;
16862;SDS011;52193;48.216;-1.698;2022-12-31T01:29:23;23.58;;;17.20;;
16862;SDS011;52193;48.216;-1.698;2022-12-31T01:31:51;27.08;;;18.25;;
16862;SDS011;52193;48.216;-1.698;2022-12-31T01:34:18;25.40;;;18.25;;
16862;SDS011;52193;48.216;-1.698;2022-12-31T01:36:45;28.13;;;18.15;;
16862;SDS011;52193;48.216;-1.698;2022-12-31T01:39:12;25.08;;;18.23;;
16862;SDS011;52193;48.216;-1.698;2022-12-31T01:41:40;22.48;;;16.70;;
16862;SDS011;52193;48.216;-1.698;2022-12-31T01:47:16;21.88;;;17.27;;
16862;SDS011;52193;48.216;-1.698;2022-12-31T01:49:47;22.17;;;17.45;;
16862;SDS011;52193;48.216;-1.698;2022-12-31T01:52:18;24.02;;;17.33;;
16862;SDS011;52193;48.216;-1.698;2022-12-31T01:54:49;22.73;;;17.00;;
16862;SDS011;52193;48.216;-1.698;2022-12-31T01:57:20;19.33;;;16.80;;
16862;SDS011;52193;48.216;-1.698;2022-12-31T01:59:49;18.35;;;16.65;;
16862;SDS011;52193;48.216;-1.698;2022-12-31T02:02:18;18.50;;;16.58;;
16862;SDS011;52193;48.216;-1.698;2022-12-31T02:04:45;17.77;;;16.13;;
16862;SDS011;52193;48.216;-1.698;2022-12-31T02:07:14;18.05;;;16.33;;
16862;SDS011;52193;48.216;-1.698;2022-12-31T02:09:41;17.80;;;16.08;;
16862;SDS011;52193;48.216;-1.698;2022-12-31T02:12:08;17.80;;;15.90;;
16862;SDS011;52193;48.216;-1.698;2022-12-31T02:14:36;16.15;;;14.73;;
16862;SDS011;52193;48.216;-1.698;2022-12-31T02:17:06;17.10;;;14.55;;
16862;SDS011;52193;48.216;-1.698;2022-12-31T02:22:47;15.50;;;13.82;;
16862;SDS011;52193;48.216;-1.698;2022-12-31T02:25:38;15.45;;;13.90;;
16862;SDS011;52193;48.216;-1.698;2022-12-31T02:28:26;15.20;;;13.63;;
16862;SDS011;52193;48.216;-1.698;2022-12-31T02:31:04;15.02;;;13.52;;
16862;SDS011;52193;48.216;-1.698;2022-12-31T02:33:34;16.35;;;13.40;;
16862;SDS011;52193;48.216;-1.698;2022-12-31T02:36:05;17.55;;;13.88;;
16862;SDS011;52193;48.216;-1.698;2022-12-31T02:38:39;14.88;;;12.75;;
16862;SDS011;52193;48.216;-1.698;2022-12-31T02:41:11;18.10;;;12.90;;
16862;SDS011;52193;48.216;-1.698;2022-12-31T02:43:59;16.92;;;13.35;;
16862;SDS011;52193;48.216;-1.698;2022-12-31T02:46:29;15.77;;;13.10;;
16862;SDS011;52193;48.216;-1.698;2022-12-31T02:49:05;18.90;;;13.88;;
16862;SDS011;52193;48.216;-1.698;2022-12-31T02:51:39;17.17;;;12.82;;
16862;SDS011;52193;48.216;-1.698;2022-12-31T02:54:14;17.65;;;12.80;;
16862;SDS011;52193;48.216;-1.698;2022-12-31T02:56:50;18.42;;;13.50;;
16862;SDS011;52193;48.216;-1.698;2022-12-31T02:59:27;18.17;;;13.20;;
16862;SDS011;52193;48.216;-1.698;2022-12-31T03:02:17;18.65;;;12.60;;
16862;SDS011;52193;48.216;-1.698;2022-12-31T03:04:47;20.73;;;13.05;;
16862;SDS011;52193;48.216;-1.698;2022-12-31T03:07:17;24.08;;;13.70;;
16862;SDS011;52193;48.216;-1.698;2022-12-31T03:09:46;17.17;;;12.68;;
16862;SDS011;52193;48.216;-1.698;2022-12-31T03:12:13;17.42;;;13.07;;
16862;SDS011;52193;48.216;-1.698;2022-12-31T03:14:59;17.05;;;12.45;;
16862;SDS011;52193;48.216;-1.698;2022-12-31T03:17:32;16.38;;;12.13;;
16862;SDS011;52193;48.216;-1.698;2022-12-31T03:19:59;14.18;;;12.27;;
16862;SDS011;52193;48.216;-1.698;2022-12-31T03:22:43;15.98;;;12.30;;
16862;SDS011;52193;48.216;-1.698;2022-12-31T03:25:11;17.45;;;12.40;;
16862;SDS011;52193;48.216;-1.698;2022-12-31T03:27:57;15.32;;;12.50;;
16862;SDS011;52193;48.216;-1.698;2022-12-31T03:30:25;15.77;;;11.93;;
16862;SDS011;52193;48.216;-1.698;2022-12-31T03:32:54;22.23;;;12.82;;
16862;SDS011;52193;48.216;-1.698;2022-12-31T03:35:22;13.38;;;11.70;;
16862;SDS011;52193;48.216;-1.698;2022-12-31T03:37:50;18.35;;;12.18;;
16862;SDS011;52193;48.216;-1.698;2022-12-31T03:40:18;13.05;;;11.63;;
16862;SDS011;52193;48.216;-1.698;2022-12-31T03:42:47;18.40;;;12.00;;
16862;SDS011;52193;48.216;-1.698;2022-12-31T03:45:14;14.07;;;11.30;;
16862;SDS011;52193;48.216;-1.698;2022-12-31T03:47:41;12.85;;;10.88;;
16862;SDS011;52193;48.216;-1.698;2022-12-31T03:50:10;16.02;;;10.32;;
16862;SDS011;52193;48.216;-1.698;2022-12-31T03:52:39;14.07;;;9.95;;
16862;SDS011;52193;48.216;-1.698;2022-12-31T03:55:06;15.70;;;10.80;;
16862;SDS011;52193;48.216;-1.698;2022-12-31T03:57:34;11.55;;;10.35;;
16862;SDS011;52193;48.216;-1.698;2022-12-31T04:00:03;11.30;;;10.07;;
16862;SDS011;52193;48.216;-1.698;2022-12-31T04:02:32;15.57;;;10.35;;
16862;SDS011;52193;48.216;-1.698;2022-12-31T04:04:59;15.35;;;10.10;;
16862;SDS011;52193;48.216;-1.698;2022-12-31T04:07:27;14.43;;;10.00;;
16862;SDS011;52193;48.216;-1.698;2022-12-31T04:09:54;11.68;;;10.02;;
16862;SDS011;52193;48.216;-1.698;2022-12-31T04:12:21;15.13;;;9.50;;
16862;SDS011;52193;48.216;-1.698;2022-12-31T04:14:48;11.60;;;9.27;;
16862;SDS011;52193;48.216;-1.698;2022-12-31T04:17:15;10.95;;;9.25;;
16862;SDS011;52193;48.216;-1.698;2022-12-31T04:19:42;12.70;;;9.88;;
16862;SDS011;52193;48.216;-1.698;2022-12-31T04:22:09;15.30;;;10.90;;
16862;SDS011;52193;48.216;-1.698;2022-12-31T04:24:38;11.95;;;10.68;;
16862;SDS011;52193;48.216;-1.698;2022-12-31T04:27:05;15.15;;;10.75;;
16862;SDS011;52193;48.216;-1.698;2022-12-31T04:29:32;16.27;;;10.48;;
16862;SDS011;52193;48.216;-1.698;2022-12-31T04:31:59;11.57;;;10.35;;
16862;SDS011;52193;48.216;-1.698;2022-12-31T04:34:26;13.23;;;10.23;;
16862;SDS011;52193;48.216;-1.698;2022-12-31T04:36:53;12.35;;;9.73;;
16862;SDS011;52193;48.216;-1.698;2022-12-31T04:39:20;10.68;;;9.48;;
16862;SDS011;52193;48.216;-1.698;2022-12-31T04:41:48;12.20;;;9.25;;
16862;SDS011;52193;48.216;-1.698;2022-12-31T04:44:16;16.02;;;10.40;;
16862;SDS011;52193;48.216;-1.698;2022-12-31T04:46:43;12.95;;;10.10;;
16862;SDS011;52193;48.216;-1.698;2022-12-31T04:49:10;17.17;;;10.18;;
16862;SDS011;52193;48.216;-1.698;2022-12-31T04:51:37;13.18;;;10.48;;
16862;SDS011;52193;48.216;-1.698;2022-12-31T04:54:04;15.35;;;10.55;;
16862;SDS011;52193;48.216;-1.698;2022-12-31T04:56:32;13.23;;;10.02;;
16862;SDS011;52193;48.216;-1.698;2022-12-31T04:59:02;13.68;;;10.35;;
16862;SDS011;52193;48.216;-1.698;2022-12-31T05:01:29;17.10;;;10.93;;
16862;SDS011;52193;48.216;-1.698;2022-12-31T05:03:56;13.02;;;11.40;;
16862;SDS011;52193;48.216;-1.698;2022-12-31T05:06:24;13.82;;;11.25;;
16862;SDS011;52193;48.216;-1.698;2022-12-31T05:08:51;16.23;;;11.15;;
16862;SDS011;52193;48.216;-1.698;2022-12-31T05:11:18;19.27;;;11.35;;
16862;SDS011;52193;48.216;-1.698;2022-12-31T05:13:45;18.30;;;10.63;;
16862;SDS011;52193;48.216;-1.698;2022-12-31T05:16:13;17.10;;;10.30;;
16862;SDS011;52193;48.216;-1.698;2022-12-31T05:18:40;17.05;;;10.95;;
16862;SDS011;52193;48.216;-1.698;2022-12-31T05:21:08;20.20;;;11.18;;
16862;SDS011;52193;48.216;-1.698;2022-12-31T05:23:40;15.70;;;10.65;;
16862;SDS011;52193;48.216;-1.698;2022-12-31T05:26:07;17.13;;;10.60;;
16862;SDS011;52193;48.216;-1.698;2022-12-31T05:28:34;17.55;;;10.75;;
16862;SDS011;52193;48.216;-1.698;2022-12-31T05:31:01;16.25;;;10.30;;
16862;SDS011;52193;48.216;-1.698;2022-12-31T05:33:29;17.42;;;10.13;;
16862;SDS011;52193;48.216;-1.698;2022-12-31T05:35:56;17.95;;;10.63;;
16862;SDS011;52193;48.216;-1.698;2022-12-31T05:38:23;19.05;;;10.25;;
16862;SDS011;52193;48.216;-1.698;2022-12-31T05:40:57;18.33;;;10.75;;
16862;SDS011;52193;48.216;-1.698;2022-12-31T05:43:25;19.48;;;11.13;;
16862;SDS011;52193;48.216;-1.698;2022-12-31T05:45:52;23.00;;;10.88;;
16862;SDS011;52193;48.216;-1.698;2022-12-31T05:48:19;25.30;;;12.82;;
16862;SDS011;52193;48.216;-1.698;2022-12-31T05:50:47;20.88;;;13.23;;
16862;SDS011;52193;48.216;-1.698;2022-12-31T05:53:14;18.63;;;12.75;;
16862;SDS011;52193;48.216;-1.698;2022-12-31T05:55:41;22.70;;;14.25;;
16862;SDS011;52193;48.216;-1.698;2022-12-31T05:58:09;23.83;;;14.45;;
16862;SDS011;52193;48.216;-1.698;2022-12-31T06:00:36;23.45;;;14.50;;
16862;SDS011;52193;48.216;-1.698;2022-12-31T06:03:03;29.98;;;15.43;;
16862;SDS011;52193;48.216;-1.698;2022-12-31T06:05:30;24.63;;;15.18;;
16862;SDS011;52193;48.216;-1.698;2022-12-31T06:07:59;24.95;;;14.70;;
16862;SDS011;52193;48.216;-1.698;2022-12-31T06:10:26;23.95;;;15.90;;
16862;SDS011;52193;48.216;-1.698;2022-12-31T06:12:52;28.08;;;16.10;;
16862;SDS011;52193;48.216;-1.698;2022-12-31T06:15:19;27.70;;;15.38;;
16862;SDS011;52193;48.216;-1.698;2022-12-31T06:17:46;26.38;;;15.35;;
16862;SDS011;52193;48.216;-1.698;2022-12-31T06:20:13;24.98;;;14.82;;
16862;SDS011;52193;48.216;-1.698;2022-12-31T06:22:40;31.83;;;15.25;;
16862;SDS011;52193;48.216;-1.698;2022-12-31T06:25:09;26.90;;;14.88;;
16862;SDS011;52193;48.216;-1.698;2022-12-31T06:27:36;23.95;;;13.30;;
16862;SDS011;52193;48.216;-1.698;2022-12-31T06:30:03;27.20;;;14.00;;
16862;SDS011;52193;48.216;-1.698;2022-12-31T06:32:31;23.90;;;13.27;;
16862;SDS011;52193;48.216;-1.698;2022-12-31T06:34:59;26.42;;;12.43;;
16862;SDS011;52193;48.216;-1.698;2022-12-31T06:37:26;23.95;;;11.18;;
16862;SDS011;52193;48.216;-1.698;2022-12-31T06:39:53;19.02;;;11.07;;
16862;SDS011;52193;48.216;-1.698;2022-12-31T06:42:21;26.40;;;11.48;;
16862;SDS011;52193;48.216;-1.698;2022-12-31T06:44:48;20.80;;;11.38;;
16862;SDS011;52193;48.216;-1.698;2022-12-31T06:47:15;23.63;;;11.15;;
16862;SDS011;52193;48.216;-1.698;2022-12-31T06:49:42;19.63;;;11.77;;
16862;SDS011;52193;48.216;-1.698;2022-12-31T06:52:09;19.80;;;11.40;;
16862;SDS011;52193;48.216;-1.698;2022-12-31T06:54:36;19.42;;;11.05;;
16862;SDS011;52193;48.216;-1.698;2022-12-31T06:57:03;22.48;;;11.80;;
16862;SDS011;52193;48.216;-1.698;2022-12-31T06:59:32;20.27;;;12.27;;
16862;SDS011;52193;48.216;-1.698;2022-12-31T07:02:03;21.42;;;12.32;;
16862;SDS011;52193;48.216;-1.698;2022-12-31T07:07:33;16.70;;;12.18;;
16862;SDS011;52193;48.216;-1.698;2022-12-31T07:10:10;17.63;;;13.15;;
16862;SDS011;52193;48.216;-1.698;2022-12-31T07:12:52;21.30;;;13.38;;
16862;SDS011;52193;48.216;-1.698;2022-12-31T07:15:34;24.42;;;13.05;;
16862;SDS011;52193;48.216;-1.698;2022-12-31T07:18:11;21.25;;;14.02;;
16862;SDS011;52193;48.216;-1.698;2022-12-31T07:20:45;23.02;;;15.75;;
16862;SDS011;52193;48.216;-1.698;2022-12-31T07:23:12;27.95;;;16.33;;
16862;SDS011;52193;48.216;-1.698;2022-12-31T07:25:40;24.08;;;16.15;;
16862;SDS011;52193;48.216;-1.698;2022-12-31T07:28:14;21.95;;;16.67;;
16862;SDS011;52193;48.216;-1.698;2022-12-31T07:30:51;28.77;;;17.55;;
16862;SDS011;52193;48.216;-1.698;2022-12-31T07:33:30;30.73;;;26.60;;
16862;SDS011;52193;48.216;-1.698;2022-12-31T07:36:12;30.85;;;24.48;;
16862;SDS011;52193;48.216;-1.698;2022-12-31T07:38:49;30.38;;;27.13;;
16862;SDS011;52193;48.216;-1.698;2022-12-31T07:41:22;30.02;;;24.88;;
16862;SDS011;52193;48.216;-1.698;2022-12-31T07:44:10;28.52;;;22.70;;
16862;SDS011;52193;48.216;-1.698;2022-12-31T07:46:51;33.05;;;23.23;;
16862;SDS011;52193;48.216;-1.698;2022-12-31T07:49:21;36.05;;;26.80;;
16862;SDS011;52193;48.216;-1.698;2022-12-31T07:51:50;31.50;;;27.75;;
16862;SDS011;52193;48.216;-1.698;2022-12-31T07:54:17;30.90;;;26.42;;
16862;SDS011;52193;48.216;-1.698;2022-12-31T07:56:44;30.65;;;25.08;;
16862;SDS011;52193;48.216;-1.698;2022-12-31T07:59:16;32.17;;;23.33;;
16862;SDS011;52193;48.216;-1.698;2022-12-31T08:01:58;35.92;;;22.17;;
16862;SDS011;52193;48.216;-1.698;2022-12-31T08:04:30;28.85;;;23.15;;
16862;SDS011;52193;48.216;-1.698;2022-12-31T08:07:08;32.78;;;24.33;;
16862;SDS011;52193;48.216;-1.698;2022-12-31T08:09:44;29.88;;;25.27;;
16862;SDS011;52193;48.216;-1.698;2022-12-31T08:12:17;29.60;;;25.55;;
16862;SDS011;52193;48.216;-1.698;2022-12-31T08:14:46;32.33;;;24.73;;
16862;SDS011;52193;48.216;-1.698;2022-12-31T08:17:16;31.10;;;23.73;;
16862;SDS011;52193;48.216;-1.698;2022-12-31T08:19:44;29.20;;;23.38;;
16862;SDS011;52193;48.216;-1.698;2022-12-31T08:22:15;26.63;;;24.02;;
16862;SDS011;52193;48.216;-1.698;2022-12-31T08:25:07;26.83;;;23.30;;
16862;SDS011;52193;48.216;-1.698;2022-12-31T08:27:42;28.75;;;23.52;;
16862;SDS011;52193;48.216;-1.698;2022-12-31T08:30:19;26.55;;;22.75;;
16862;SDS011;52193;48.216;-1.698;2022-12-31T08:32:50;26.25;;;23.75;;
16862;SDS011;52193;48.216;-1.698;2022-12-31T08:35:32;27.40;;;21.67;;
16862;SDS011;52193;48.216;-1.698;2022-12-31T08:38:07;29.23;;;20.35;;
16862;SDS011;52193;48.216;-1.698;2022-12-31T08:40:45;26.92;;;21.17;;
16862;SDS011;52193;48.216;-1.698;2022-12-31T08:43:24;28.55;;;19.02;;
16862;SDS011;52193;48.216;-1.698;2022-12-31T08:46:02;20.17;;;18.02;;
16862;SDS011;52193;48.216;-1.698;2022-12-31T08:48:35;25.83;;;17.02;;
16862;SDS011;52193;48.216;-1.698;2022-12-31T08:51:05;25.27;;;17.27;;
16862;SDS011;52193;48.216;-1.698;2022-12-31T08:53:38;18.35;;;15.15;;
16862;SDS011;52193;48.216;-1.698;2022-12-31T08:56:06;23.60;;;13.40;;
16862;SDS011;52193;48.216;-1.698;2022-12-31T08:58:40;19.27;;;13.65;;
16862;SDS011;52193;48.216;-1.698;2022-12-31T09:01:13;17.50;;;12.40;;
16862;SDS011;52193;48.216;-1.698;2022-12-31T09:04:02;18.10;;;11.98;;
16862;SDS011;52193;48.216;-1.698;2022-12-31T09:06:38;16.85;;;11.40;;
16862;SDS011;52193;48.216;-1.698;2022-12-31T09:09:13;17.25;;;11.77;;
16862;SDS011;52193;48.216;-1.698;2022-12-31T09:11:49;15.05;;;11.30;;
16862;SDS011;52193;48.216;-1.698;2022-12-31T09:14:33;15.27;;;10.68;;
16862;SDS011;52193;48.216;-1.698;2022-12-31T09:17:09;19.27;;;11.25;;
16862;SDS011;52193;48.216;-1.698;2022-12-31T09:19:55;20.55;;;11.10;;
16862;SDS011;52193;48.216;-1.698;2022-12-31T09:22:23;19.05;;;10.40;;
16862;SDS011;52193;48.216;-1.698;2022-12-31T09:24:50;16.60;;;10.15;;
16862;SDS011;52193;48.216;-1.698;2022-12-31T09:27:20;16.88;;;10.18;;
16862;SDS011;52193;48.216;-1.698;2022-12-31T09:29:51;13.65;;;9.55;;
16862;SDS011;52193;48.216;-1.698;2022-12-31T09:32:28;15.35;;;9.48;;
16862;SDS011;52193;48.216;-1.698;2022-12-31T09:35:06;15.18;;;8.65;;
16862;SDS011;52193;48.216;-1.698;2022-12-31T09:37:42;12.00;;;9.13;;
16862;SDS011;52193;48.216;-1.698;2022-12-31T09:40:19;19.13;;;9.20;;
16862;SDS011;52193;48.216;-1.698;2022-12-31T09:46:56;15.65;;;8.57;;
16862;SDS011;52193;48.216;-1.698;2022-12-31T09:52:56;21.17;;;9.18;;
16862;SDS011;52193;48.216;-1.698;2022-12-31T09:55:48;15.90;;;8.10;;
16862;SDS011;52193;48.216;-1.698;2022-12-31T09:58:24;21.67;;;8.98;;
16862;SDS011;52193;48.216;-1.698;2022-12-31T10:01:09;16.52;;;8.20;;
16862;SDS011;52193;48.216;-1.698;2022-12-31T10:03:52;16.75;;;8.00;;
16862;SDS011;52193;48.216;-1.698;2022-12-31T10:06:32;15.70;;;8.27;;
16862;SDS011;52193;48.216;-1.698;2022-12-31T10:09:18;14.85;;;7.78;;
16862;SDS011;52193;48.216;-1.698;2022-12-31T10:12:05;14.85;;;8.45;;
16862;SDS011;52193;48.216;-1.698;2022-12-31T10:15:01;14.65;;;8.27;;
16862;SDS011;52193;48.216;-1.698;2022-12-31T10:17:46;13.75;;;7.65;;
16862;SDS011;52193;48.216;-1.698;2022-12-31T10:20:33;15.40;;;8.45;;
16862;SDS011;52193;48.216;-1.698;2022-12-31T10:23:16;13.00;;;7.40;;
16862;SDS011;52193;48.216;-1.698;2022-12-31T10:28:58;16.40;;;8.13;;
16862;SDS011;52193;48.216;-1.698;2022-12-31T10:31:38;18.08;;;8.07;;
16862;SDS011;52193;48.216;-1.698;2022-12-31T10:34:12;15.18;;;8.05;;
16862;SDS011;52193;48.216;-1.698;2022-12-31T10:36:51;19.42;;;8.07;;
16862;SDS011;52193;48.216;-1.698;2022-12-31T10:39:33;15.52;;;8.25;;
16862;SDS011;52193;48.216;-1.698;2022-12-31T10:51:34;14.40;;;7.88;;
16862;SDS011;52193;48.216;-1.698;2022-12-31T10:57:37;19.38;;;8.25;;
16862;SDS011;52193;48.216;-1.698;2022-12-31T11:00:33;20.20;;;9.32;;
16862;SDS011;52193;48.216;-1.698;2022-12-31T11:06:17;22.25;;;9.00;;
16862;SDS011;52193;48.216;-1.698;2022-12-31T11:09:20;14.98;;;8.57;;
16862;SDS011;52193;48.216;-1.698;2022-12-31T11:12:21;14.25;;;8.25;;
16862;SDS011;52193;48.216;-1.698;2022-12-31T11:15:15;21.80;;;9.30;;
16862;SDS011;52193;48.216;-1.698;2022-12-31T11:17:58;16.23;;;9.40;;
16862;SDS011;52193;48.216;-1.698;2022-12-31T11:20:41;16.05;;;9.60;;
16862;SDS011;52193;48.216;-1.698;2022-12-31T11:23:35;17.13;;;9.60;;
16862;SDS011;52193;48.216;-1.698;2022-12-31T11:26:11;17.73;;;9.43;;
16862;SDS011;52193;48.216;-1.698;2022-12-31T11:29:02;15.77;;;9.15;;
16862;SDS011;52193;48.216;-1.698;2022-12-31T11:31:45;18.25;;;8.95;;
16862;SDS011;52193;48.216;-1.698;2022-12-31T11:34:40;15.10;;;8.15;;
16862;SDS011;52193;48.216;-1.698;2022-12-31T11:37:27;20.70;;;8.38;;
16862;SDS011;52193;48.216;-1.698;2022-12-31T11:40:07;16.27;;;7.90;;
16862;SDS011;52193;48.216;-1.698;2022-12-31T11:42:49;13.68;;;8.15;;
16862;SDS011;52193;48.216;-1.698;2022-12-31T11:45:26;17.60;;;8.45;;
16862;SDS011;52193;48.216;-1.698;2022-12-31T11:48:19;26.58;;;8.60;;
16862;SDS011;52193;48.216;-1.698;2022-12-31T11:50:54;16.75;;;7.38;;
16862;SDS011;52193;48.216;-1.698;2022-12-31T11:53:50;15.20;;;7.53;;
16862;SDS011;52193;48.216;-1.698;2022-12-31T11:56:32;16.35;;;7.45;;
16862;SDS011;52193;48.216;-1.698;2022-12-31T11:59:05;16.25;;;7.90;;
16862;SDS011;52193;48.216;-1.698;2022-12-31T12:01:37;16.10;;;8.05;;
16862;SDS011;52193;48.216;-1.698;2022-12-31T12:04:12;16.48;;;7.40;;
16862;SDS011;52193;48.216;-1.698;2022-12-31T12:06:39;16.10;;;8.00;;
16862;SDS011;52193;48.216;-1.698;2022-12-31T12:09:10;19.92;;;8.18;;
16862;SDS011;52193;48.216;-1.698;2022-12-31T12:11:42;16.23;;;7.57;;
16862;SDS011;52193;48.216;-1.698;2022-12-31T12:14:19;17.17;;;8.05;;
16862;SDS011;52193;48.216;-1.698;2022-12-31T12:16:46;13.32;;;7.05;;
16862;SDS011;52193;48.216;-1.698;2022-12-31T12:19:19;14.85;;;7.25;;
16862;SDS011;52193;48.216;-1.698;2022-12-31T12:21:49;14.70;;;7.28;;
16862;SDS011;52193;48.216;-1.698;2022-12-31T12:24:18;19.42;;;7.72;;
16862;SDS011;52193;48.216;-1.698;2022-12-31T12:26:47;16.45;;;7.35;;
16862;SDS011;52193;48.216;-1.698;2022-12-31T12:29:16;15.80;;;7.28;;
16862;SDS011;52193;48.216;-1.698;2022-12-31T12:31:53;15.70;;;7.30;;
16862;SDS011;52193;48.216;-1.698;2022-12-31T12:34:22;15.00;;;6.60;;
16862;SDS011;52193;48.216;-1.698;2022-12-31T12:36:50;15.57;;;7.32;;
16862;SDS011;52193;48.216;-1.698;2022-12-31T12:39:20;17.48;;;7.10;;
16862;SDS011;52193;48.216;-1.698;2022-12-31T12:41:59;15.27;;;7.10;;
16862;SDS011;52193;48.216;-1.698;2022-12-31T12:44:28;17.50;;;7.07;;
16862;SDS011;52193;48.216;-1.698;2022-12-31T12:46:56;17.58;;;7.22;;
16862;SDS011;52193;48.216;-1.698;2022-12-31T12:49:24;11.02;;;6.60;;
16862;SDS011;52193;48.216;-1.698;2022-12-31T12:51:59;14.30;;;6.35;;
16862;SDS011;52193;48.216;-1.698;2022-12-31T12:54:38;12.80;;;6.30;;
16862;SDS011;52193;48.216;-1.698;2022-12-31T12:57:23;13.30;;;6.20;;
16862;SDS011;52193;48.216;-1.698;2022-12-31T13:05:47;17.40;;;5.88;;
16862;SDS011;52193;48.216;-1.698;2022-12-31T13:08:27;15.32;;;5.40;;
16862;SDS011;52193;48.216;-1.698;2022-12-31T13:11:07;13.68;;;4.85;;
16862;SDS011;52193;48.216;-1.698;2022-12-31T13:13:52;16.45;;;4.93;;
16862;SDS011;52193;48.216;-1.698;2022-12-31T13:16:26;13.30;;;4.90;;
16862;SDS011;52193;48.216;-1.698;2022-12-31T13:19:00;15.48;;;4.60;;
16862;SDS011;52193;48.216;-1.698;2022-12-31T13:21:34;12.98;;;4.70;;
16862;SDS011;52193;48.216;-1.698;2022-12-31T13:24:12;14.10;;;4.40;;
16862;SDS011;52193;48.216;-1.698;2022-12-31T13:26:49;14.23;;;4.68;;
16862;SDS011;52193;48.216;-1.698;2022-12-31T13:29:23;14.85;;;4.40;;
16862;SDS011;52193;48.216;-1.698;2022-12-31T13:31:55;11.38;;;3.88;;
16862;SDS011;52193;48.216;-1.698;2022-12-31T13:34:24;16.20;;;4.50;;
16862;SDS011;52193;48.216;-1.698;2022-12-31T13:36:56;14.70;;;4.00;;
16862;SDS011;52193;48.216;-1.698;2022-12-31T13:39:28;14.95;;;4.18;;
16862;SDS011;52193;48.216;-1.698;2022-12-31T13:42:02;13.40;;;4.50;;
16862;SDS011;52193;48.216;-1.698;2022-12-31T13:44:36;12.85;;;4.38;;
16862;SDS011;52193;48.216;-1.698;2022-12-31T13:47:09;17.00;;;4.35;;
16862;SDS011;52193;48.216;-1.698;2022-12-31T13:49:41;13.43;;;4.25;;
16862;SDS011;52193;48.216;-1.698;2022-12-31T13:52:16;13.13;;;4.03;;
16862;SDS011;52193;48.216;-1.698;2022-12-31T13:54:50;15.95;;;4.25;;
16862;SDS011;52193;48.216;-1.698;2022-12-31T13:57:22;10.07;;;4.28;;
16862;SDS011;52193;48.216;-1.698;2022-12-31T14:00:03;13.68;;;4.18;;
16862;SDS011;52193;48.216;-1.698;2022-12-31T14:02:34;13.65;;;4.75;;
16862;SDS011;52193;48.216;-1.698;2022-12-31T14:05:11;16.05;;;4.50;;
16862;SDS011;52193;48.216;-1.698;2022-12-31T14:07:43;14.32;;;4.00;;
16862;SDS011;52193;48.216;-1.698;2022-12-31T14:10:14;13.75;;;5.07;;
16862;SDS011;52193;48.216;-1.698;2022-12-31T14:12:45;12.05;;;4.30;;
16862;SDS011;52193;48.216;-1.698;2022-12-31T14:15:21;14.98;;;4.85;;
16862;SDS011;52193;48.216;-1.698;2022-12-31T14:17:55;16.10;;;4.80;;
16862;SDS011;52193;48.216;-1.698;2022-12-31T14:20:30;15.40;;;5.15;;
16862;SDS011;52193;48.216;-1.698;2022-12-31T14:23:09;11.57;;;4.30;;
16862;SDS011;52193;48.216;-1.698;2022-12-31T14:25:45;12.25;;;4.65;;
16862;SDS011;52193;48.216;-1.698;2022-12-31T14:28:16;14.57;;;4.53;;
16862;SDS011;52193;48.216;-1.698;2022-12-31T14:30:50;10.98;;;4.15;;
16862;SDS011;52193;48.216;-1.698;2022-12-31T14:33:30;11.65;;;4.60;;
16862;SDS011;52193;48.216;-1.698;2022-12-31T14:36:09;13.95;;;4.38;;
16862;SDS011;52193;48.216;-1.698;2022-12-31T14:38:53;18.52;;;4.82;;
16862;SDS011;52193;48.216;-1.698;2022-12-31T14:41:40;12.50;;;4.65;;
16862;SDS011;52193;48.216;-1.698;2022-12-31T14:44:21;15.10;;;3.78;;
16862;SDS011;52193;48.216;-1.698;2022-12-31T14:47:05;12.95;;;4.65;;
16862;SDS011;52193;48.216;-1.698;2022-12-31T14:49:47;14.80;;;4.22;;
16862;SDS011;52193;48.216;-1.698;2022-12-31T14:52:23;17.70;;;4.50;;
16862;SDS011;52193;48.216;-1.698;2022-12-31T14:54:58;19.33;;;4.05;;
16862;SDS011;52193;48.216;-1.698;2022-12-31T14:57:32;12.63;;;4.88;;
16862;SDS011;52193;48.216;-1.698;2022-12-31T15:00:16;10.93;;;3.92;;
16862;SDS011;52193;48.216;-1.698;2022-12-31T15:02:51;16.45;;;4.20;;
16862;SDS011;52193;48.216;-1.698;2022-12-31T15:05:21;13.20;;;3.75;;
16862;SDS011;52193;48.216;-1.698;2022-12-31T15:08:00;13.52;;;4.20;;
16862;SDS011;52193;48.216;-1.698;2022-12-31T15:10:47;11.27;;;4.45;;
16862;SDS011;52193;48.216;-1.698;2022-12-31T15:13:26;20.80;;;5.05;;
16862;SDS011;52193;48.216;-1.698;2022-12-31T15:16:12;18.67;;;4.28;;
16862;SDS011;52193;48.216;-1.698;2022-12-31T15:19:02;11.70;;;3.78;;
16862;SDS011;52193;48.216;-1.698;2022-12-31T15:21:53;13.45;;;4.22;;
16862;SDS011;52193;48.216;-1.698;2022-12-31T15:24:29;11.85;;;3.90;;
16862;SDS011;52193;48.216;-1.698;2022-12-31T15:26:57;13.73;;;3.92;;
16862;SDS011;52193;48.216;-1.698;2022-12-31T15:29:27;16.85;;;4.63;;